createdAt,value
2018-03-07T00:00:21.462Z,98750.94
2018-03-07T00:02:47.241Z,98750.45
2018-03-07T00:05:13.027Z,98748.86
2018-03-07T00:07:38.810Z,98748.66
2018-03-07T00:10:04.582Z,98749.21
2018-03-07T00:12:30.574Z,98751.11
2018-03-07T00:14:56.362Z,98750.00
2018-03-07T00:17:23.033Z,98748.20
2018-03-07T00:19:48.810Z,98749.02
2018-03-07T00:22:14.646Z,98745.38
2018-03-07T00:24:40.425Z,98747.79
2018-03-07T00:27:06.197Z,98745.12
2018-03-07T00:29:32.006Z,98739.00
2018-03-07T00:31:57.782Z,98738.11
2018-03-07T00:34:23.614Z,98736.78
2018-03-07T00:36:49.387Z,98731.77
2018-03-07T00:39:15.157Z,98733.34
2018-03-07T00:41:40.937Z,98730.68
2018-03-07T00:44:06.714Z,98731.98
2018-03-07T00:46:33.348Z,98731.70
2018-03-07T00:49:00.090Z,98732.03
2018-03-07T00:51:25.861Z,98723.88
2018-03-07T00:53:51.637Z,98725.47
2018-03-07T00:56:17.413Z,98721.94
2018-03-07T00:58:43.196Z,98724.49
2018-03-07T01:01:09.002Z,98720.38
2018-03-07T01:03:34.782Z,98722.20
2018-03-07T01:06:00.592Z,98719.69
2018-03-07T01:08:27.381Z,98714.48
2018-03-07T01:10:53.153Z,98709.03
2018-03-07T01:13:18.929Z,98712.52
2018-03-07T01:15:44.703Z,98708.62
2018-03-07T01:18:10.477Z,98707.23
2018-03-07T01:20:36.307Z,98709.97
2018-03-07T01:23:02.084Z,98712.92
2018-03-07T01:25:27.857Z,98706.07
2018-03-07T01:27:53.622Z,98706.23
2018-03-07T01:30:19.400Z,98702.34
2018-03-07T01:32:45.174Z,98697.78
2018-03-07T01:35:10.941Z,98699.14
2018-03-07T01:37:37.602Z,98700.16
2018-03-07T01:40:03.397Z,98693.59
2018-03-07T01:42:29.177Z,98693.64
2018-03-07T01:44:54.950Z,98685.35
2018-03-07T01:47:20.730Z,98685.36
2018-03-07T01:49:46.539Z,98685.41
2018-03-07T01:52:12.323Z,98691.05
2018-03-07T01:54:38.107Z,98686.62
2018-03-07T01:57:03.881Z,98682.60
2018-03-07T01:59:29.658Z,98680.39
2018-03-07T02:01:55.449Z,98673.87
2018-03-07T02:04:21.229Z,98676.21
2018-03-07T02:06:47.008Z,98673.45
2018-03-07T02:09:12.781Z,98673.09
2018-03-07T02:11:38.557Z,98668.41
2018-03-07T02:14:04.329Z,98674.27
2018-03-07T02:16:31.061Z,98668.49
2018-03-07T02:18:57.857Z,98666.81
2018-03-07T02:21:24.615Z,98663.77
2018-03-07T02:23:50.392Z,98659.52
2018-03-07T02:26:16.199Z,98656.02
2018-03-07T02:28:42.953Z,98660.53
2018-03-07T02:31:09.737Z,98660.32
2018-03-07T02:33:36.538Z,98653.30
2018-03-07T02:36:03.285Z,98651.31
2018-03-07T02:38:30.031Z,98653.69
2018-03-07T02:40:55.851Z,98651.22
2018-03-07T02:43:22.465Z,98654.38
2018-03-07T02:45:48.277Z,98646.30
2018-03-07T02:48:14.081Z,98649.95
2018-03-07T02:50:39.857Z,98652.45
2018-03-07T02:53:05.703Z,98650.32
2018-03-07T02:55:31.486Z,98649.41
2018-03-07T02:57:58.218Z,98658.73
2018-03-07T03:00:25.037Z,98654.70
2018-03-07T03:02:51.806Z,98652.53
2018-03-07T03:05:18.606Z,98656.88
2018-03-07T03:07:44.451Z,98653.97
2018-03-07T03:10:10.233Z,98650.19
2018-03-07T03:12:37.061Z,98648.42
2018-03-07T03:15:02.854Z,98651.87
2018-03-07T03:17:28.664Z,98647.82
2018-03-07T03:19:55.334Z,98647.16
2018-03-07T03:22:21.160Z,98648.76
2018-03-07T03:24:46.929Z,98643.70
2018-03-07T03:27:13.542Z,98645.92
2018-03-07T03:29:39.359Z,98648.87
2018-03-07T03:32:05.133Z,98654.88
2018-03-07T03:34:31.929Z,98652.08
2018-03-07T03:36:58.749Z,98655.84
2018-03-07T03:39:25.505Z,98657.28
2018-03-07T03:41:51.281Z,98652.94
2018-03-07T03:44:17.058Z,98655.52
2018-03-07T03:46:42.837Z,98656.77
2018-03-07T03:49:08.612Z,98652.58
2018-03-07T03:51:35.304Z,98655.69
2018-03-07T03:54:02.056Z,98656.52
2018-03-07T03:56:28.761Z,98654.16
2018-03-07T03:58:54.538Z,98658.23
2018-03-07T04:01:20.349Z,98657.63
2018-03-07T04:03:46.121Z,98657.01
2018-03-07T04:06:12.877Z,98659.91
2018-03-07T04:08:38.651Z,98660.69
2018-03-07T04:11:05.281Z,98662.70
2018-03-07T04:13:32.014Z,98664.02
2018-03-07T04:15:57.789Z,98661.72
2018-03-07T04:18:24.464Z,98663.36
2018-03-07T04:20:50.294Z,98661.06
2018-03-07T04:23:16.074Z,98669.55
2018-03-07T04:25:41.857Z,98661.14
2018-03-07T04:28:07.630Z,98660.66
2018-03-07T04:30:33.414Z,98655.37
2018-03-07T04:32:59.193Z,98662.63
2018-03-07T04:35:24.965Z,98662.53
2018-03-07T04:37:50.740Z,98659.55
2018-03-07T04:40:16.522Z,98656.25
2018-03-07T04:42:42.382Z,98659.05
2018-03-07T04:45:08.154Z,98656.19
2018-03-07T04:47:33.978Z,98655.45
2018-03-07T04:49:59.747Z,98654.05
2018-03-07T04:52:25.533Z,98649.91
2018-03-07T04:54:51.306Z,98651.84
2018-03-07T04:57:17.081Z,98654.72
2018-03-07T04:59:42.849Z,98654.02
2018-03-07T05:02:08.628Z,98654.09
2018-03-07T05:04:34.413Z,98653.84
2018-03-07T05:07:00.190Z,98653.47
2018-03-07T05:09:25.973Z,98650.30
2018-03-07T05:11:51.749Z,98658.23
2018-03-07T05:14:17.519Z,98647.23
2018-03-07T05:16:43.298Z,98651.70
2018-03-07T05:19:09.110Z,98655.02
2018-03-07T05:21:34.883Z,98658.36
2018-03-07T05:24:01.518Z,98655.28
2018-03-07T05:26:27.431Z,98654.50
2018-03-07T05:28:53.213Z,98654.58
2018-03-07T05:31:19.021Z,98658.06
2018-03-07T05:33:45.773Z,98657.98
2018-03-07T05:36:12.728Z,98654.91
2018-03-07T05:38:38.537Z,98647.89
2018-03-07T05:41:04.433Z,98650.48
2018-03-07T05:43:30.305Z,98654.45
2018-03-07T05:45:56.129Z,98645.14
2018-03-07T05:48:22.160Z,98639.44
2018-03-07T05:50:50.281Z,98647.52
2018-03-07T05:53:17.132Z,98650.13
2018-03-07T05:55:43.367Z,98643.60
2018-03-07T05:58:10.466Z,98650.66
2018-03-07T06:00:38.181Z,98649.84
2018-03-07T06:03:04.058Z,98646.59
2018-03-07T06:05:29.956Z,98649.76
2018-03-07T06:07:55.765Z,98656.36
2018-03-07T06:10:21.550Z,98649.25
2018-03-07T06:12:47.537Z,98653.64
2018-03-07T06:15:14.135Z,98664.33
2018-03-07T06:17:39.978Z,98659.30
2018-03-07T06:20:05.763Z,98663.38
2018-03-07T06:22:31.540Z,98663.11
2018-03-07T06:24:57.374Z,98658.95
2018-03-07T06:27:24.010Z,98673.70
2018-03-07T06:29:49.826Z,98673.44
2018-03-07T06:32:16.500Z,98672.58
2018-03-07T06:34:42.329Z,98676.44
2018-03-07T06:37:08.110Z,98678.66
2018-03-07T06:39:33.902Z,98687.11
2018-03-07T06:41:59.690Z,98688.25
2018-03-07T06:44:25.497Z,98687.97
2018-03-07T06:46:51.285Z,98687.03
2018-03-07T06:49:17.098Z,98692.23
2018-03-07T06:51:42.873Z,98692.77
2018-03-07T06:54:08.701Z,98698.81
2018-03-07T06:56:34.480Z,98701.56
2018-03-07T06:59:00.281Z,98699.84
2018-03-07T07:01:26.918Z,98698.31
2018-03-07T07:03:52.747Z,98702.58
2018-03-07T07:06:18.949Z,98705.95
2018-03-07T07:08:44.770Z,98706.69
2018-03-07T07:11:10.551Z,98714.52
2018-03-07T07:13:36.329Z,98711.37
2018-03-07T07:16:02.889Z,98712.03
2018-03-07T07:18:29.713Z,98716.62
2018-03-07T07:20:55.500Z,98718.38
2018-03-07T07:23:21.293Z,98722.41
2018-03-07T07:25:47.181Z,98724.50
2018-03-07T07:28:12.967Z,98720.89
2018-03-07T07:30:39.757Z,98729.91
2018-03-07T07:33:05.574Z,98725.40
2018-03-07T07:35:32.306Z,98726.18
2018-03-07T07:37:58.118Z,98735.63
2018-03-07T07:40:23.894Z,98724.87
2018-03-07T07:42:49.701Z,98732.62
2018-03-07T07:45:16.358Z,98732.18
2018-03-07T07:47:42.204Z,98734.02
2018-03-07T07:50:08.036Z,98740.55
2018-03-07T07:52:33.828Z,98737.02
2018-03-07T07:54:59.611Z,98742.11
2018-03-07T07:57:26.238Z,98741.49
2018-03-07T07:59:52.024Z,98742.23
2018-03-07T08:02:17.809Z,98744.73
2018-03-07T08:04:43.584Z,98749.63
2018-03-07T08:07:09.370Z,98752.82
2018-03-07T08:09:35.149Z,98751.78
2018-03-07T08:12:00.930Z,98753.80
2018-03-07T08:14:26.717Z,98757.17
2018-03-07T08:16:52.542Z,98759.31
2018-03-07T08:19:18.323Z,98754.95
2018-03-07T08:21:44.097Z,98758.16
2018-03-07T08:24:10.758Z,98759.17
2018-03-07T08:26:36.531Z,98761.52
2018-03-07T08:29:02.314Z,98762.59
2018-03-07T08:31:28.513Z,98760.33
2018-03-07T08:33:54.493Z,98767.59
2018-03-07T08:36:20.305Z,98767.43
2018-03-07T08:38:46.086Z,98769.33
2018-03-07T08:41:11.867Z,98780.23
2018-03-07T08:43:37.651Z,98778.52
2018-03-07T08:46:03.441Z,98777.37
2018-03-07T08:48:29.315Z,98774.94
2018-03-07T08:50:55.125Z,98772.52
2018-03-07T08:53:20.969Z,98782.63
2018-03-07T08:55:46.785Z,98779.91
2018-03-07T08:58:12.580Z,98778.77
2018-03-07T09:00:38.466Z,98781.09
2018-03-07T09:03:04.253Z,98777.77
2018-03-07T09:05:30.887Z,98782.50
2018-03-07T09:07:56.722Z,98785.58
2018-03-07T09:10:22.677Z,98789.11
2018-03-07T09:12:48.458Z,98787.13
2018-03-07T09:15:14.237Z,98781.14
2018-03-07T09:17:40.022Z,98785.73
2018-03-07T09:20:05.793Z,98790.45
2018-03-07T09:22:31.577Z,98790.09
2018-03-07T09:24:57.405Z,98792.88
2018-03-07T09:27:23.190Z,98796.66
2018-03-07T09:29:49.009Z,98794.65
2018-03-07T09:32:14.786Z,98799.95
2018-03-07T09:34:40.612Z,98799.66
2018-03-07T09:37:07.358Z,98808.32
2018-03-07T09:39:33.150Z,98812.02
2018-03-07T09:41:58.971Z,98807.81
2018-03-07T09:44:24.794Z,98809.84
2018-03-07T09:46:50.571Z,98814.48
2018-03-07T09:49:16.414Z,98814.23
2018-03-07T09:51:43.127Z,98817.88
2018-03-07T09:54:09.845Z,98815.66
2018-03-07T09:56:35.680Z,98816.40
2018-03-07T09:59:01.819Z,98821.36
2018-03-07T10:01:27.594Z,98829.16
2018-03-07T10:03:53.382Z,98826.63
2018-03-07T10:06:20.170Z,98827.16
2018-03-07T10:08:45.950Z,98829.25
2018-03-07T10:11:11.770Z,98824.37
2018-03-07T10:13:37.550Z,98829.27
2018-03-07T10:16:04.212Z,98829.13
2018-03-07T10:18:30.005Z,98835.04
2018-03-07T10:20:55.790Z,98834.05
2018-03-07T10:23:21.574Z,98832.40
2018-03-07T10:25:47.409Z,98835.27
2018-03-07T10:28:14.112Z,98837.86
2018-03-07T10:30:39.898Z,98835.89
2018-03-07T10:33:12.712Z,98838.23
2018-03-07T10:35:39.317Z,98832.99
2018-03-07T10:38:05.089Z,98843.08
2018-03-07T10:40:30.876Z,98841.33
2018-03-07T10:42:57.661Z,98847.22
2018-03-07T10:45:24.445Z,98842.87
2018-03-07T10:47:51.167Z,98845.02
2018-03-07T10:50:16.951Z,98847.25
2018-03-07T10:52:42.770Z,98857.23
2018-03-07T10:55:08.546Z,98859.61
2018-03-07T10:57:34.332Z,98865.56
2018-03-07T11:00:00.146Z,98861.75
2018-03-07T11:02:26.885Z,98863.06
2018-03-07T11:04:53.698Z,98860.69
2018-03-07T11:07:20.471Z,98862.25
2018-03-07T11:09:46.245Z,98865.33
2018-03-07T11:12:12.026Z,98863.92
2018-03-07T11:14:38.727Z,98863.20
2018-03-07T11:17:04.510Z,98865.19
2018-03-07T11:19:30.290Z,98863.65
2018-03-07T11:21:56.078Z,98860.42
2018-03-07T11:24:22.713Z,98859.67
2018-03-07T11:26:48.527Z,98862.14
2018-03-07T11:29:14.314Z,98861.73
2018-03-07T11:31:40.138Z,98862.31
2018-03-07T11:34:06.866Z,98868.09
2018-03-07T11:36:32.694Z,98867.77
2018-03-07T11:38:58.482Z,98866.50
2018-03-07T11:41:24.262Z,98864.78
2018-03-07T11:43:50.047Z,98870.48
2018-03-07T11:46:16.670Z,98874.19
2018-03-07T11:48:43.416Z,98869.34
2018-03-07T11:51:09.198Z,98872.12
2018-03-07T11:53:34.975Z,98870.88
2018-03-07T11:56:01.830Z,98871.75
2018-03-07T11:58:28.598Z,98866.70
2018-03-07T12:00:54.381Z,98872.94
2018-03-07T12:03:20.207Z,98872.87
2018-03-07T12:05:47.039Z,98878.17
2018-03-07T12:08:12.823Z,98874.49
2018-03-07T12:10:38.601Z,98875.23
2018-03-07T12:13:04.382Z,98878.61
2018-03-07T12:15:30.162Z,98877.42
2018-03-07T12:17:55.937Z,98878.06
2018-03-07T12:20:22.534Z,98874.54
2018-03-07T12:22:48.313Z,98879.27
2018-03-07T12:25:14.141Z,98873.11
2018-03-07T12:27:39.934Z,98874.82
2018-03-07T12:30:05.740Z,98881.31
2018-03-07T12:32:31.523Z,98882.47
2018-03-07T12:34:57.306Z,98884.11
2018-03-07T12:37:23.090Z,98889.24
2018-03-07T12:39:48.866Z,98884.14
2018-03-07T12:42:14.650Z,98887.92
2018-03-07T12:44:40.446Z,98884.65
2018-03-07T12:47:06.242Z,98884.35
2018-03-07T12:49:32.023Z,98889.97
2018-03-07T12:51:57.805Z,98891.33
2018-03-07T12:54:23.586Z,98886.59
2018-03-07T12:56:49.360Z,98885.16
2018-03-07T12:59:15.878Z,98891.48
2018-03-07T13:01:42.441Z,98894.43
2018-03-07T13:04:09.275Z,98896.91
2018-03-07T13:06:35.992Z,98891.56
2018-03-07T13:09:01.816Z,98892.56
2018-03-07T13:11:27.590Z,98897.39
2018-03-07T13:13:54.332Z,98899.24
2018-03-07T13:16:21.070Z,98898.16
2018-03-07T13:18:47.781Z,98898.83
2018-03-07T13:21:14.509Z,98903.82
2018-03-07T13:23:41.300Z,98901.48
2018-03-07T13:26:07.078Z,98912.03
2018-03-07T13:28:32.857Z,98912.63
2018-03-07T13:30:59.595Z,98914.16
2018-03-07T13:33:25.419Z,98916.38
2018-03-07T13:35:51.198Z,98923.04
2018-03-07T13:38:18.061Z,98919.58
2018-03-07T13:40:43.857Z,98918.22
2018-03-07T13:43:09.835Z,98926.06
2018-03-07T13:45:35.653Z,98931.36
2018-03-07T13:48:01.438Z,98927.83
2018-03-07T13:50:27.274Z,98925.54
2018-03-07T13:52:53.058Z,98926.28
2018-03-07T13:55:18.871Z,98929.12
2018-03-07T13:57:44.694Z,98935.34
2018-03-07T14:00:13.291Z,98936.30
2018-03-07T14:02:39.082Z,98940.53
2018-03-07T14:05:04.964Z,98942.36
2018-03-07T14:07:30.758Z,98944.58
2018-03-07T14:09:56.546Z,98944.30
2018-03-07T14:12:23.266Z,98951.17
2018-03-07T14:14:56.990Z,98950.66
2018-03-07T14:17:23.618Z,98950.73
2018-03-07T14:19:50.414Z,98954.73
2018-03-07T14:22:17.174Z,98953.69
2018-03-07T14:24:42.953Z,98953.84
2018-03-07T14:27:08.728Z,98953.98
2018-03-07T14:29:35.502Z,98960.27
2018-03-07T14:32:02.247Z,98964.25
2018-03-07T14:34:29.042Z,98960.37
2018-03-07T14:36:55.750Z,98968.30
2018-03-07T14:39:21.562Z,98966.67
2018-03-07T14:41:47.377Z,98969.44
2018-03-07T14:44:13.154Z,98972.48
2018-03-07T14:46:39.776Z,98972.66
2018-03-07T14:49:05.554Z,98978.31
2018-03-07T14:51:32.398Z,98977.68
2018-03-07T14:53:59.138Z,98975.59
2018-03-07T14:56:25.859Z,98980.45
2018-03-07T14:58:51.782Z,98977.76
2018-03-07T15:01:17.558Z,98988.26
2018-03-07T15:03:43.338Z,98983.47
2018-03-07T15:06:09.126Z,98987.00
2018-03-07T15:08:34.949Z,98987.23
2018-03-07T15:11:00.730Z,98993.13
2018-03-07T15:13:27.486Z,98995.77
2018-03-07T15:15:53.265Z,98990.61
2018-03-07T15:18:19.121Z,98999.09
2018-03-07T15:20:44.910Z,98998.78
2018-03-07T15:23:10.759Z,98997.70
2018-03-07T15:25:43.577Z,99005.79
2018-03-07T15:28:10.414Z,99005.53
2018-03-07T15:30:36.198Z,99003.20
2018-03-07T15:33:01.977Z,99000.73
2018-03-07T15:35:27.799Z,99007.90
2018-03-07T15:37:53.586Z,99008.08
2018-03-07T15:40:19.359Z,99013.13
2018-03-07T15:42:46.006Z,99021.63
2018-03-07T15:45:12.669Z,99017.00
2018-03-07T15:47:39.430Z,99022.45
2018-03-07T15:50:06.130Z,99023.64
2018-03-07T15:52:31.906Z,99021.38
2018-03-07T15:54:57.690Z,99028.62
2018-03-07T15:57:23.477Z,99025.80
2018-03-07T15:59:49.262Z,99029.82
2018-03-07T16:02:15.052Z,99024.64
2018-03-07T16:04:40.830Z,99028.30
2018-03-07T16:07:07.458Z,99034.66
2018-03-07T16:09:33.245Z,99038.61
2018-03-07T16:11:59.040Z,99032.53
2018-03-07T16:14:25.813Z,99035.95
2018-03-07T16:16:51.590Z,99041.44
2018-03-07T16:19:17.371Z,99044.81
2018-03-07T16:21:43.153Z,99047.57
2018-03-07T16:24:08.935Z,99040.44
2018-03-07T16:26:35.611Z,99038.75
2018-03-07T16:29:01.398Z,99045.81
2018-03-07T16:31:27.178Z,99047.67
2018-03-07T16:33:52.960Z,99044.47
2018-03-07T16:36:19.789Z,99055.57
2018-03-07T16:38:45.571Z,99051.72
2018-03-07T16:41:11.357Z,99057.77
2018-03-07T16:43:37.158Z,99058.16
2018-03-07T16:46:02.958Z,99061.88
2018-03-07T16:48:28.738Z,99060.30
2018-03-07T16:50:54.595Z,99061.41
2018-03-07T16:53:20.409Z,99066.52
2018-03-07T16:55:46.210Z,99069.20
2018-03-07T16:58:13.001Z,99069.12
2018-03-07T17:00:38.793Z,99071.66
2018-03-07T17:03:04.613Z,99069.71
2018-03-07T17:05:30.395Z,99076.23
2018-03-07T17:07:56.321Z,99081.87
2018-03-07T17:10:22.242Z,99077.83
2018-03-07T17:12:48.197Z,99082.38
2018-03-07T17:15:15.134Z,99085.20
2018-03-07T17:17:41.014Z,99086.03
2018-03-07T17:20:06.914Z,99085.02
2018-03-07T17:22:33.398Z,99087.16
2018-03-07T17:24:59.310Z,99087.91
2018-03-07T17:27:26.118Z,99089.91
2018-03-07T17:29:53.986Z,99097.03
2018-03-07T17:32:21.050Z,99093.59
2018-03-07T17:34:46.925Z,99096.05
2018-03-07T17:37:12.784Z,99092.41
2018-03-07T17:39:38.692Z,99102.52
2018-03-07T17:42:04.617Z,99105.69
2018-03-07T17:44:30.693Z,99106.76
2018-03-07T17:46:56.664Z,99106.74
2018-03-07T17:49:23.839Z,99103.44
2018-03-07T17:51:49.830Z,99109.45
2018-03-07T17:54:15.979Z,99111.75
2018-03-07T17:56:42.010Z,99109.31
2018-03-07T17:59:08.250Z,99116.56
2018-03-07T18:01:34.313Z,99112.21
2018-03-07T18:04:00.270Z,99121.52
2018-03-07T18:06:26.384Z,99121.94
2018-03-07T18:08:52.358Z,99125.98
2018-03-07T18:11:18.455Z,99129.18
2018-03-07T18:13:44.473Z,99126.53
2018-03-07T18:16:10.633Z,99126.28
2018-03-07T18:18:36.621Z,99132.36
2018-03-07T18:21:07.681Z,99133.06
2018-03-07T18:23:34.383Z,99140.94
2018-03-07T18:26:00.261Z,99138.75
2018-03-07T18:28:27.068Z,99131.81
2018-03-07T18:30:53.011Z,99145.91
2018-03-07T18:33:19.887Z,99152.34
2018-03-07T18:35:45.761Z,99150.38
2018-03-07T18:38:11.673Z,99151.22
2018-03-07T18:40:37.843Z,99154.31
2018-03-07T18:43:03.753Z,99150.38
2018-03-07T18:45:29.734Z,99160.28
2018-03-07T18:47:57.795Z,99158.19
2018-03-07T18:50:23.708Z,99156.43
2018-03-07T18:52:49.807Z,99163.88
2018-03-07T18:55:16.238Z,99158.04
2018-03-07T18:57:48.410Z,99157.16
2018-03-07T19:00:14.399Z,99153.71
2018-03-07T19:02:40.417Z,99152.12
2018-03-07T19:05:06.318Z,99159.88
2018-03-07T19:07:32.449Z,99163.02
2018-03-07T19:09:58.381Z,99166.45
2018-03-07T19:12:24.993Z,99170.64
2018-03-07T19:14:51.600Z,99179.02
2018-03-07T19:17:18.428Z,99184.20
2018-03-07T19:19:44.369Z,99181.02
2018-03-07T19:22:10.206Z,99182.25
2018-03-07T19:24:36.727Z,99189.02
2018-03-07T19:27:02.610Z,99181.56
2018-03-07T19:29:29.370Z,99182.27
2018-03-07T19:31:56.071Z,99185.03
2018-03-07T19:34:21.904Z,99184.54
2018-03-07T19:36:47.764Z,99187.56
2018-03-07T19:39:14.458Z,99190.97
2018-03-07T19:41:40.294Z,99196.48
2018-03-07T19:44:09.299Z,99196.91
2018-03-07T19:46:35.137Z,99196.64
2018-03-07T19:49:00.994Z,99199.20
2018-03-07T19:51:26.821Z,99207.97
2018-03-07T19:53:52.714Z,99205.16
2018-03-07T19:56:19.235Z,99202.95
2018-03-07T19:58:45.123Z,99208.81
2018-03-07T20:01:10.982Z,99210.38
2018-03-07T20:03:36.869Z,99208.67
2018-03-07T20:06:02.760Z,99212.92
2018-03-07T20:08:28.830Z,99215.61
2018-03-07T20:10:54.666Z,99213.59
2018-03-07T20:13:21.190Z,99217.35
2018-03-07T20:15:47.855Z,99214.16
2018-03-07T20:18:13.686Z,99216.78
2018-03-07T20:20:39.577Z,99222.11
2018-03-07T20:23:05.522Z,99224.14
2018-03-07T20:25:32.078Z,99232.75
2018-03-07T20:27:58.234Z,99234.95
2018-03-07T20:30:25.711Z,99240.22
2018-03-07T20:32:52.087Z,99234.36
2018-03-07T20:35:18.508Z,99226.66
2018-03-07T20:37:44.399Z,99235.05
2018-03-07T20:40:10.234Z,99238.66
2018-03-07T20:42:36.094Z,99238.71
2018-03-07T20:45:02.700Z,99240.16
2018-03-07T20:47:28.534Z,99242.26
2018-03-07T20:49:54.478Z,99238.71
2018-03-07T20:52:20.320Z,99238.16
2018-03-07T20:54:46.170Z,99242.38
2018-03-07T20:57:12.002Z,99243.91
2018-03-07T20:59:38.417Z,99246.69
2018-03-07T21:02:04.298Z,99241.88
2018-03-07T21:04:30.213Z,99251.22
2018-03-07T21:06:56.112Z,99258.42
2018-03-07T21:09:22.032Z,99262.97
2018-03-07T21:11:48.993Z,99255.25
2018-03-07T21:14:14.940Z,99269.85
2018-03-07T21:16:40.861Z,99276.61
2018-03-07T21:19:06.750Z,99274.31
2018-03-07T21:21:32.840Z,99278.73
2018-03-07T21:23:59.772Z,99274.88
2018-03-07T21:26:25.756Z,99279.80
2018-03-07T21:28:51.730Z,99283.89
2018-03-07T21:31:17.619Z,99284.14
2018-03-07T21:33:43.509Z,99288.66
2018-03-07T21:36:09.599Z,99286.44
2018-03-07T21:38:35.925Z,99289.75
2018-03-07T21:41:02.143Z,99289.82
2018-03-07T21:43:33.116Z,99292.60
2018-03-07T21:45:59.170Z,99296.12
2018-03-07T21:48:26.162Z,99293.28
2018-03-07T21:50:52.213Z,99297.52
2018-03-07T21:53:18.250Z,99294.67
2018-03-07T21:55:44.258Z,99301.50
2018-03-07T21:58:10.236Z,99298.45
2018-03-07T22:00:36.937Z,99301.66
2018-03-07T22:03:02.829Z,99310.59
2018-03-07T22:05:28.741Z,99321.52
2018-03-07T22:07:54.789Z,99320.39
2018-03-07T22:10:20.735Z,99321.36
2018-03-07T22:12:46.659Z,99321.44
2018-03-07T22:15:12.550Z,99320.31
2018-03-07T22:17:38.445Z,99315.28
2018-03-07T22:20:04.406Z,99322.94
2018-03-07T22:22:30.311Z,99321.17
2018-03-07T22:24:56.253Z,99310.59
2018-03-07T22:27:22.149Z,99313.55
2018-03-07T22:29:48.036Z,99314.08
2018-03-07T22:32:13.925Z,99312.31
2018-03-07T22:34:39.904Z,99320.69
2018-03-07T22:37:05.795Z,99321.44
2018-03-07T22:39:31.684Z,99317.56
2018-03-07T22:41:57.614Z,99315.27
2018-03-07T22:44:23.490Z,99317.20
2018-03-07T22:46:49.425Z,99318.25
2018-03-07T22:49:17.250Z,99320.61
2018-03-07T22:51:43.204Z,99316.59
2018-03-07T22:54:09.096Z,99318.95
2018-03-07T22:56:34.985Z,99326.47
2018-03-07T22:59:01.596Z,99324.89
2018-03-07T23:01:28.475Z,99330.70
2018-03-07T23:03:54.367Z,99337.28
2018-03-07T23:06:20.282Z,99339.01
2018-03-07T23:08:46.258Z,99336.50
2018-03-07T23:11:12.138Z,99341.22
2018-03-07T23:13:38.107Z,99336.08
2018-03-07T23:16:03.996Z,99332.68
2018-03-07T23:18:29.979Z,99340.72
2018-03-07T23:20:55.865Z,99341.24
2018-03-07T23:23:22.745Z,99346.33
2018-03-07T23:25:48.635Z,99340.44
2018-03-07T23:28:14.526Z,99346.88
2018-03-07T23:30:40.414Z,99350.52
2018-03-07T23:33:06.304Z,99350.19
2018-03-07T23:35:32.378Z,99356.27
2018-03-07T23:37:58.216Z,99351.59
2018-03-07T23:40:25.108Z,99362.52
2018-03-07T23:42:51.869Z,99362.02
2018-03-07T23:45:17.770Z,99365.38
2018-03-07T23:47:44.524Z,99369.58
2018-03-07T23:50:11.246Z,99373.20
2018-03-07T23:52:37.118Z,99370.65
2018-03-07T23:55:03.006Z,99367.42
2018-03-07T23:57:29.884Z,99369.34
2018-03-07T23:59:56.675Z,99358.98
